createdAt,value
2019-02-24T00:01:33.696Z,64.75
2019-02-24T00:06:40.719Z,64.91
2019-02-24T00:11:47.775Z,65.85
2019-02-24T00:16:54.821Z,66.64
2019-02-24T00:22:02.969Z,66.69
2019-02-24T00:27:09.954Z,66.08
2019-02-24T00:32:16.936Z,64.64
2019-02-24T00:37:23.925Z,64.98
2019-02-24T00:42:30.978Z,64.72
2019-02-24T00:47:37.975Z,64.71
2019-02-24T00:52:44.990Z,64.21
2019-02-24T00:57:52.179Z,63.75
2019-02-24T01:02:59.187Z,63.08
2019-02-24T01:08:06.363Z,63.03
2019-02-24T01:13:13.433Z,62.43
2019-02-24T01:18:20.506Z,62.19
2019-02-24T01:23:27.582Z,62.63
2019-02-24T01:28:34.683Z,62.76
2019-02-24T01:33:41.760Z,62.96
2019-02-24T01:38:48.751Z,62.37
2019-02-24T01:43:56.183Z,63.12
2019-02-24T01:49:03.252Z,63.16
2019-02-24T01:54:10.292Z,63.33
2019-02-24T01:59:17.285Z,63.22
2019-02-24T02:04:24.258Z,63.24
2019-02-24T02:09:31.272Z,63.96
2019-02-24T02:14:38.239Z,64.60
2019-02-24T02:19:45.248Z,64.70
2019-02-24T02:24:52.242Z,64.25
2019-02-24T02:29:59.331Z,64.58
2019-02-24T02:35:07.393Z,65.23
2019-02-24T02:40:14.463Z,65.17
2019-02-24T02:45:21.431Z,65.00
2019-02-24T02:50:28.505Z,65.41
2019-02-24T02:55:35.534Z,64.47
2019-02-24T03:00:43.721Z,64.89
2019-02-24T03:06:16.166Z,65.36
2019-02-24T03:11:23.248Z,65.74
2019-02-24T03:16:30.398Z,65.81
2019-02-24T03:21:37.398Z,65.50
2019-02-24T03:26:44.484Z,64.82
2019-02-24T03:31:51.459Z,65.35
2019-02-24T03:36:58.531Z,65.18
2019-02-24T03:42:05.584Z,64.59
2019-02-24T03:47:12.558Z,64.17
2019-02-24T03:52:19.709Z,64.14
2019-02-24T03:57:27.465Z,63.81
2019-02-24T04:02:34.459Z,63.66
2019-02-24T04:07:41.529Z,63.42
2019-02-24T04:12:48.656Z,63.14
2019-02-24T04:17:55.902Z,63.89
2019-02-24T04:23:02.931Z,63.93
2019-02-24T04:28:11.227Z,63.16
2019-02-24T04:33:18.243Z,62.19
2019-02-24T04:38:25.237Z,61.50
2019-02-24T04:43:32.272Z,62.31
2019-02-24T04:48:39.252Z,62.41
2019-02-24T04:53:46.660Z,63.04
2019-02-24T04:58:53.729Z,63.13
2019-02-24T05:04:00.794Z,63.84
2019-02-24T05:09:07.792Z,63.62
2019-02-24T05:14:14.898Z,64.25
2019-02-24T05:19:21.867Z,64.41
2019-02-24T05:24:28.955Z,64.61
2019-02-24T05:29:44.694Z,64.78
2019-02-24T05:34:44.644Z,64.33
2019-02-24T05:39:51.628Z,64.55
2019-02-24T05:44:58.653Z,64.40
2019-02-24T05:50:08.388Z,64.88
2019-02-24T05:55:15.649Z,64.92
2019-02-24T06:00:25.242Z,64.57
2019-02-24T06:05:32.285Z,65.90
2019-02-24T06:10:39.362Z,65.50
2019-02-24T06:15:46.408Z,65.01
2019-02-24T06:20:54.007Z,65.14
2019-02-24T06:26:01.060Z,65.56
2019-02-24T06:31:08.836Z,64.95
2019-02-24T06:36:15.841Z,65.52
2019-02-24T06:41:23.406Z,66.16
2019-02-24T06:46:30.607Z,66.61
2019-02-24T06:51:37.680Z,65.71
2019-02-24T06:56:44.853Z,66.20
2019-02-24T07:01:51.978Z,65.93
2019-02-24T07:06:59.353Z,65.19
2019-02-24T07:12:06.561Z,66.35
2019-02-24T07:17:13.567Z,65.09
2019-02-24T07:22:20.563Z,64.45
2019-02-24T07:27:27.546Z,63.96
2019-02-24T07:32:34.786Z,64.07
2019-02-24T07:37:41.772Z,63.51
2019-02-24T07:42:48.772Z,64.69
2019-02-24T07:47:55.871Z,66.07
2019-02-24T07:53:03.033Z,66.14
2019-02-24T07:58:11.107Z,65.96
2019-02-24T08:03:18.126Z,66.25
2019-02-24T08:08:25.087Z,66.19
2019-02-24T08:13:32.332Z,65.43
2019-02-24T08:18:39.412Z,65.79
2019-02-24T08:23:46.404Z,66.45
2019-02-24T08:28:53.391Z,66.20
2019-02-24T08:34:00.453Z,64.59
2019-02-24T08:39:07.628Z,64.08
2019-02-24T08:44:14.637Z,63.64
2019-02-24T08:49:21.706Z,62.50
2019-02-24T08:54:28.757Z,61.19
2019-02-24T08:59:35.778Z,57.75
2019-02-24T09:04:42.830Z,57.04
2019-02-24T09:09:50.223Z,58.07
2019-02-24T09:14:58.198Z,57.24
2019-02-24T09:20:05.656Z,58.82
2019-02-24T09:25:13.657Z,59.08
2019-02-24T09:30:20.841Z,59.08
2019-02-24T09:35:27.923Z,57.23
2019-02-24T09:40:34.954Z,56.19
2019-02-24T09:45:41.960Z,54.45
2019-02-24T09:50:48.953Z,54.73
2019-02-24T09:55:56.016Z,55.19
2019-02-24T10:01:10.283Z,55.16
2019-02-24T10:06:11.833Z,54.64
2019-02-24T10:11:19.116Z,54.73
2019-02-24T10:16:27.196Z,54.16
2019-02-24T10:21:34.216Z,54.97
2019-02-24T10:26:41.279Z,55.58
2019-02-24T10:31:48.515Z,55.29
2019-02-24T10:36:55.863Z,55.42
2019-02-24T10:42:03.008Z,56.38
2019-02-24T10:47:10.123Z,56.72
2019-02-24T10:52:17.202Z,54.89
2019-02-24T10:57:24.419Z,55.20
2019-02-24T11:02:31.776Z,54.98
2019-02-24T11:07:38.908Z,53.33
2019-02-24T11:12:45.880Z,51.30
2019-02-24T11:17:52.928Z,50.93
2019-02-24T11:22:59.931Z,49.84
2019-02-24T11:28:06.967Z,50.03
2019-02-24T11:33:13.974Z,48.20
2019-02-24T11:38:22.035Z,47.02
2019-02-24T11:43:30.242Z,45.70
2019-02-24T11:48:37.238Z,43.29
2019-02-24T11:53:44.285Z,42.29
2019-02-24T11:58:51.330Z,42.00
2019-02-24T12:03:58.821Z,40.47
2019-02-24T12:09:06.127Z,39.10
2019-02-24T12:14:13.203Z,39.23
2019-02-24T12:19:20.283Z,37.94
2019-02-24T12:24:27.262Z,38.36
2019-02-24T12:29:34.277Z,37.82
2019-02-24T12:34:41.279Z,36.45
2019-02-24T12:39:48.260Z,35.28
2019-02-24T12:44:55.323Z,34.76
2019-02-24T12:50:03.875Z,32.38
2019-02-24T12:55:11.000Z,32.19
2019-02-24T13:00:19.208Z,31.74
2019-02-24T13:05:26.438Z,30.61
2019-02-24T13:10:33.655Z,29.78
2019-02-24T13:15:40.739Z,36.19
2019-02-24T13:20:50.664Z,36.00
2019-02-24T13:25:57.825Z,34.59
2019-02-24T13:31:04.958Z,34.26
2019-02-24T13:36:12.231Z,33.66
2019-02-24T13:41:19.344Z,34.47
2019-02-24T13:46:26.541Z,32.60
2019-02-24T13:51:33.626Z,32.07
2019-02-24T13:56:40.801Z,30.30
2019-02-24T14:01:47.901Z,29.08
2019-02-24T14:06:54.927Z,27.50
2019-02-24T14:12:02.153Z,26.05
2019-02-24T14:17:09.188Z,27.66
2019-02-24T14:22:16.201Z,24.13
2019-02-24T14:27:23.290Z,24.24
2019-02-24T14:32:33.075Z,24.19
2019-02-24T14:37:39.410Z,22.92
2019-02-24T14:42:46.556Z,22.88
2019-02-24T14:47:53.847Z,23.57
2019-02-24T14:53:01.291Z,22.58
2019-02-24T14:58:08.609Z,22.34
2019-02-24T15:03:15.903Z,21.98
2019-02-24T15:08:23.243Z,23.44
2019-02-24T15:13:30.608Z,24.60
2019-02-24T15:18:37.997Z,24.00
2019-02-24T15:23:45.386Z,24.00
2019-02-24T15:28:52.976Z,23.03
2019-02-24T15:34:00.433Z,23.03
2019-02-24T15:39:08.219Z,23.18
2019-02-24T15:44:15.714Z,22.74
2019-02-24T15:49:23.047Z,23.71
2019-02-24T15:54:30.847Z,23.33
2019-02-24T15:59:38.205Z,24.86
2019-02-24T16:04:45.509Z,25.42
2019-02-24T16:09:52.911Z,25.42
2019-02-24T16:15:00.832Z,31.34
2019-02-24T16:20:12.789Z,31.34
2019-02-24T16:25:19.809Z,33.68
2019-02-24T16:30:27.165Z,35.22
2019-02-24T16:35:35.971Z,36.10
2019-02-24T16:40:43.033Z,38.10
2019-02-24T16:45:51.531Z,39.01
2019-02-24T16:51:07.504Z,40.37
2019-02-24T16:56:14.896Z,42.68
2019-02-24T17:01:22.085Z,44.19
2019-02-24T17:06:29.136Z,44.55
2019-02-24T17:11:36.164Z,44.90
2019-02-24T17:16:43.222Z,45.00
2019-02-24T17:21:50.275Z,45.52
2019-02-24T17:26:57.545Z,45.31
2019-02-24T17:32:04.579Z,46.16
2019-02-24T17:37:19.685Z,46.17
2019-02-24T17:42:20.318Z,46.70
2019-02-24T17:47:27.521Z,47.90
2019-02-24T17:52:34.828Z,48.22
2019-02-24T17:57:42.908Z,48.44
2019-02-24T18:02:49.900Z,48.84
2019-02-24T18:07:57.962Z,49.50
2019-02-24T18:13:05.324Z,49.33
2019-02-24T18:18:12.760Z,49.50
2019-02-24T18:23:19.780Z,48.74
2019-02-24T18:28:27.017Z,47.10
2019-02-24T18:33:35.316Z,46.78
2019-02-24T18:38:43.905Z,47.11
2019-02-24T18:43:50.979Z,46.37
2019-02-24T18:48:58.067Z,46.72
2019-02-24T18:54:05.136Z,43.82
2019-02-24T18:59:12.191Z,43.76
2019-02-24T19:04:19.178Z,43.12
2019-02-24T19:09:26.691Z,42.99
2019-02-24T19:14:33.843Z,42.37
2019-02-24T19:19:40.984Z,42.59
2019-02-24T19:24:48.079Z,42.65
2019-02-24T19:29:55.074Z,42.89
2019-02-24T19:35:02.117Z,43.43
2019-02-24T19:40:11.131Z,43.91
2019-02-24T19:45:18.502Z,44.41
2019-02-24T19:50:25.640Z,44.95
2019-02-24T19:55:32.744Z,44.74
2019-02-24T20:00:39.835Z,44.86
2019-02-24T20:05:47.159Z,44.49
2019-02-24T20:10:54.620Z,43.99
2019-02-24T20:16:01.699Z,43.33
2019-02-24T20:21:08.915Z,42.51
2019-02-24T20:26:16.854Z,41.01
2019-02-24T20:31:25.010Z,41.29
2019-02-24T20:36:32.065Z,41.38
2019-02-24T20:41:39.134Z,41.47
2019-02-24T20:46:46.146Z,42.29
2019-02-24T20:51:53.192Z,42.33
2019-02-24T20:57:00.203Z,43.36
2019-02-24T21:02:07.367Z,43.16
2019-02-24T21:07:14.484Z,43.81
2019-02-24T21:12:21.573Z,44.69
2019-02-24T21:17:28.556Z,45.36
2019-02-24T21:22:35.760Z,45.72
2019-02-24T21:27:42.804Z,46.57
2019-02-24T21:32:49.998Z,46.67
2019-02-24T21:37:57.082Z,46.93
2019-02-24T21:43:04.283Z,47.69
2019-02-24T21:48:11.572Z,46.72
2019-02-24T21:53:18.653Z,46.92
2019-02-24T21:58:25.815Z,47.28
2019-02-24T22:03:32.811Z,47.09
2019-02-24T22:08:39.846Z,47.18
2019-02-24T22:13:47.074Z,47.46
2019-02-24T22:18:54.068Z,47.93
2019-02-24T22:24:01.075Z,47.47
2019-02-24T22:29:08.249Z,47.90
2019-02-24T22:34:16.414Z,47.81
2019-02-24T22:39:23.498Z,48.04
2019-02-24T22:44:30.599Z,48.64
2019-02-24T22:49:37.633Z,49.63
2019-02-24T22:54:44.663Z,49.93
2019-02-24T22:59:51.830Z,50.53
2019-02-24T23:04:58.960Z,50.97
2019-02-24T23:10:07.312Z,51.91
2019-02-24T23:15:14.403Z,52.11
2019-02-24T23:20:21.430Z,52.05
2019-02-24T23:25:30.226Z,52.07
2019-02-24T23:30:37.619Z,51.40
2019-02-24T23:35:45.857Z,52.28
2019-02-24T23:40:52.994Z,51.26
2019-02-24T23:46:00.017Z,51.51
2019-02-24T23:51:07.075Z,50.78
2019-02-24T23:56:14.205Z,49.45
